Time;durP1;ratioP1;P1;durP2;ratioP2;P2;SDS_P1;SDS_P2;PMS_P1;PMS_P2;Temp;Humidity;BMP_temperature;BMP_pressure;BME280_temperature;BME280_humidity;BME280_pressure;Samples;Min_cycle;Max_cycle;Signal;HPM_P1;HPM_P2
2023/07/26 00:01:01;;;;;;;24.50;18.23;;;;;;;13.56;100.00;97691.13;5071196;28;20684;-80
2023/07/26 00:03:28;;;;;;;24.23;17.73;;;;;;;13.57;100.00;97684.84;5071696;28;20228;-80
2023/07/26 00:05:54;;;;;;;25.97;17.10;;;;;;;13.61;100.00;97693.38;5072125;28;20212;-80
2023/07/26 00:08:21;;;;;;;24.90;18.43;;;;;;;13.63;100.00;97691.44;5071767;28;20251;-80
2023/07/26 00:10:48;;;;;;;27.30;17.37;;;;;;;13.60;100.00;97699.66;5071059;28;20502;-80
2023/07/26 00:13:17;;;;;;;29.97;19.30;;;;;;;13.60;100.00;97694.34;5071670;28;20258;-80
2023/07/26 00:15:44;;;;;;;28.43;19.00;;;;;;;13.65;100.00;97700.09;5071676;28;20606;-80
2023/07/26 00:18:10;;;;;;;26.33;18.83;;;;;;;13.66;100.00;97705.28;5071487;28;20256;-80
2023/07/26 00:20:37;;;;;;;32.17;20.67;;;;;;;13.72;100.00;97706.56;5070921;28;20209;-80
2023/07/26 00:23:03;;;;;;;27.53;19.23;;;;;;;13.71;100.00;97707.53;5071532;28;20211;-80
2023/07/26 00:25:30;;;;;;;28.60;19.87;;;;;;;13.71;100.00;97703.06;5071508;28;20590;-80
2023/07/26 00:27:56;;;;;;;30.40;20.57;;;;;;;13.73;100.00;97708.22;5071108;28;20224;-80
2023/07/26 00:30:24;;;;;;;28.83;20.53;;;;;;;13.74;100.00;97716.06;5070704;28;20208;-80
2023/07/26 00:32:51;;;;;;;28.00;19.57;;;;;;;13.74;100.00;97717.91;5071179;28;20207;-79
2023/07/26 00:35:21;;;;;;;30.70;20.40;;;;;;;13.76;100.00;97715.94;5071330;28;20241;-79
2023/07/26 00:37:48;;;;;;;31.00;21.20;;;;;;;13.77;100.00;97717.63;5071299;28;20227;-79
2023/07/26 00:40:14;;;;;;;29.40;19.60;;;;;;;13.80;100.00;97715.53;5070062;28;20219;-79
2023/07/26 00:42:41;;;;;;;29.70;21.03;;;;;;;13.81;100.00;97721.69;5071155;28;20205;-79
2023/07/26 00:45:08;;;;;;;25.20;18.57;;;;;;;13.81;100.00;97721.69;5070884;28;20215;-79
2023/07/26 00:47:36;;;;;;;27.20;20.13;;;;;;;13.79;100.00;97715.66;5071046;28;20265;-79
2023/07/26 00:50:03;;;;;;;28.50;19.13;;;;;;;13.79;100.00;97713.00;5070606;28;20210;-79
2023/07/26 00:52:30;;;;;;;28.63;20.17;;;;;;;13.76;100.00;97721.25;5071148;28;20263;-81
2023/07/26 00:54:57;;;;;;;25.90;19.03;;;;;;;13.77;100.00;97720.28;5071106;28;20235;-80
2023/07/26 00:57:23;;;;;;;29.70;19.43;;;;;;;13.76;100.00;97721.25;5071003;28;20238;-80
2023/07/26 00:59:50;;;;;;;26.97;18.93;;;;;;;13.79;100.00;97723.63;5069346;28;20206;-80
2023/07/26 01:02:16;;;;;;;25.73;18.23;;;;;;;13.78;100.00;97725.47;5068315;28;20218;-80
2023/07/26 01:04:44;;;;;;;27.47;18.63;;;;;;;13.78;100.00;97720.16;5068159;28;20208;-80
2023/07/26 01:07:18;;;;;;;27.70;18.83;;;;;;;13.76;100.00;97721.25;5068139;28;20211;-80
2023/07/26 01:09:51;;;;;;;23.47;17.60;;;;;;;13.79;100.00;97728.94;5069639;28;20204;-79
2023/07/26 01:12:23;;;;;;;21.63;17.27;;;;;;;13.79;100.00;97729.78;5070774;28;20212;-80
2023/07/26 01:14:55;;;;;;;23.07;18.03;;;;;;;13.77;100.00;97733.56;5070650;28;20228;-80
2023/07/26 01:17:21;;;;;;;24.87;17.40;;;;;;;13.77;100.00;97728.25;5070570;28;20228;-79
2023/07/26 01:19:49;;;;;;;24.33;17.60;;;;;;;13.74;100.00;97733.84;5070177;28;20592;-80
2023/07/26 01:22:17;;;;;;;22.40;16.70;;;;;;;13.72;100.00;97735.78;5070762;28;20305;-80
2023/07/26 01:24:43;;;;;;;23.23;16.63;;;;;;;13.69;100.00;97730.75;5070711;28;20209;-80
2023/07/26 01:27:10;;;;;;;18.73;14.83;;;;;;;13.66;100.00;97736.31;5070562;28;20219;-80
2023/07/26 01:29:36;;;;;;;18.70;15.23;;;;;;;13.64;100.00;97738.28;5069583;28;20263;-80
2023/07/26 01:32:03;;;;;;;18.30;14.20;;;;;;;13.63;100.00;97739.25;5070751;28;20231;-80
2023/07/26 01:34:30;;;;;;;16.37;13.20;;;;;;;13.61;100.00;97746.47;5070497;28;20233;-80
2023/07/26 01:36:59;;;;;;;14.77;12.13;;;;;;;13.59;100.00;97745.78;5070647;28;20680;-80
2023/07/26 01:39:29;;;;;;;15.23;12.90;;;;;;;13.54;100.00;97750.66;5069745;28;20225;-80
2023/07/26 01:41:56;;;;;;;13.23;11.60;;;;;;;13.56;100.00;97759.34;5070543;28;20213;-80
2023/07/26 01:44:22;;;;;;;13.80;11.67;;;;;;;13.51;100.00;97759.72;5070558;28;20687;-80
2023/07/26 01:46:52;;;;;;;14.37;11.43;;;;;;;13.47;100.00;97757.47;5070513;28;20206;-80
2023/07/26 01:49:21;;;;;;;18.17;12.13;;;;;;;13.45;100.00;97757.59;5069779;28;20232;-80
2023/07/26 01:51:47;;;;;;;16.03;12.17;;;;;;;13.45;100.00;97759.44;5071737;28;20296;-80
2023/07/26 01:54:13;;;;;;;16.00;12.07;;;;;;;13.44;100.00;97755.09;5074249;28;20241;-80
2023/07/26 01:56:41;;;;;;;13.33;11.17;;;;;;;13.45;100.00;97760.25;5074284;28;20220;-80
2023/07/26 01:59:08;;;;;;;14.37;10.87;;;;;;;13.43;100.00;97756.03;5073645;28;20261;-81
2023/07/26 02:01:34;;;;;;;15.57;11.17;;;;;;;13.40;100.00;97753.66;5074165;28;20212;-80
2023/07/26 02:04:01;;;;;;;12.80;10.57;;;;;;;13.42;100.00;97765.00;5074053;28;20199;-80
2023/07/26 02:06:27;;;;;;;13.50;10.73;;;;;;;13.37;100.00;97767.19;5073898;28;20213;-80
2023/07/26 02:08:54;;;;;;;15.70;11.03;;;;;;;13.40;100.00;97767.81;5073855;28;20633;-80
2023/07/26 02:11:20;;;;;;;15.13;10.33;;;;;;;13.40;100.00;97767.81;5073171;28;20693;-80
2023/07/26 02:13:48;;;;;;;12.13;10.23;;;;;;;13.37;100.00;97772.50;5073958;28;20212;-80
2023/07/26 02:16:14;;;;;;;11.67;9.83;;;;;;;13.38;100.00;97775.03;5073770;28;20214;-80
2023/07/26 02:18:41;;;;;;;10.93;9.53;;;;;;;13.42;100.00;97778.25;5073705;28;20512;-80
2023/07/26 02:21:08;;;;;;;12.80;10.37;;;;;;;13.40;100.00;97774.91;5073069;28;20212;-80
2023/07/26 02:23:34;;;;;;;12.90;10.60;;;;;;;13.35;100.00;97785.06;5073929;28;20221;-80
2023/07/26 02:26:00;;;;;;;12.23;9.30;;;;;;;13.27;100.00;97780.41;5073633;28;20323;-80
2023/07/26 02:28:27;;;;;;;10.83;9.30;;;;;;;13.23;100.00;97786.13;5073540;28;20236;-80
2023/07/26 02:30:55;;;;;;;11.03;9.43;;;;;;;13.23;100.00;97783.47;5073277;28;20217;-80
2023/07/26 02:33:21;;;;;;;12.07;9.03;;;;;;;13.26;100.00;97792.00;5073394;28;20216;-80
2023/07/26 02:35:48;;;;;;;11.83;9.33;;;;;;;13.24;100.00;97788.66;5073476;28;20230;-81
2023/07/26 02:38:14;;;;;;;10.30;8.67;;;;;;;13.26;100.00;97786.69;5073522;28;20228;-80
2023/07/26 02:40:41;;;;;;;9.97;8.30;;;;;;;13.21;100.00;97782.78;5072753;28;20229;-80
2023/07/26 02:43:07;;;;;;;12.23;8.87;;;;;;;13.24;100.00;97795.75;5073649;28;20556;-80
2023/07/26 02:45:34;;;;;;;10.63;8.27;;;;;;;13.20;100.00;97797.84;5073427;28;20206;-80
2023/07/26 02:48:01;;;;;;;13.70;8.53;;;;;;;13.19;100.00;97790.00;5073235;28;20231;-80
2023/07/26 02:50:28;;;;;;;9.70;7.90;;;;;;;13.16;100.00;97795.56;5072613;28;20693;-81
2023/07/26 02:52:54;;;;;;;8.77;7.67;;;;;;;13.18;100.00;97804.25;5073597;28;20587;-82
2023/07/26 02:55:21;;;;;;;9.03;7.40;;;;;;;13.13;100.00;97803.78;5073295;28;20617;-80
2023/07/26 02:57:47;;;;;;;9.63;7.33;;;;;;;13.09;100.00;97802.38;5073286;28;20229;-80
2023/07/26 03:00:14;;;;;;;8.50;7.00;;;;;;;13.02;100.00;97810.00;5072575;28;20209;-81
2023/07/26 03:02:41;;;;;;;11.53;7.13;;;;;;;12.99;100.00;97825.34;5072681;28;20248;-80
2023/07/26 03:05:09;;;;;;;7.30;6.33;;;;;;;12.96;100.00;97825.59;5073262;28;20212;-80
2023/07/26 03:07:35;;;;;;;8.97;6.30;;;;;;;12.91;100.00;97825.09;5072957;28;20244;-81
2023/07/26 03:10:02;;;;;;;7.03;6.10;;;;;;;12.85;100.00;97825.63;5072533;28;20212;-81
2023/07/26 03:12:29;;;;;;;6.77;5.83;;;;;;;12.79;100.00;97831.44;5073005;28;20208;-80
2023/07/26 03:14:55;;;;;;;8.23;5.97;;;;;;;12.74;100.00;97830.97;5072889;28;20238;-80
2023/07/26 03:17:21;;;;;;;7.43;6.27;;;;;;;12.68;100.00;97836.78;5072697;28;20208;-80
2023/07/26 03:19:48;;;;;;;7.07;6.07;;;;;;;12.64;100.00;97837.97;5072184;28;20212;-80
2023/07/26 03:22:16;;;;;;;6.33;5.60;;;;;;;12.61;100.00;97835.59;5072840;28;20220;-80
2023/07/26 03:24:42;;;;;;;6.67;6.03;;;;;;;12.52;100.00;97846.94;5072688;28;20204;-80
2023/07/26 03:27:09;;;;;;;6.10;5.50;;;;;;;12.47;100.00;97843.84;5072580;28;20217;-80
2023/07/26 03:29:35;;;;;;;9.80;6.13;;;;;;;12.40;100.00;97837.34;5071933;28;20216;-80
2023/07/26 03:32:02;;;;;;;6.27;5.53;;;;;;;12.41;100.00;97844.34;5072651;28;20221;-81
2023/07/26 03:34:28;;;;;;;6.70;5.80;;;;;;;12.39;100.00;97840.94;5072492;28;20231;-80
2023/07/26 03:36:54;;;;;;;6.23;5.63;;;;;;;12.39;100.00;97841.81;5072329;28;20211;-82
2023/07/26 03:39:22;;;;;;;6.33;5.63;;;;;;;12.39;100.00;97843.59;5071574;28;20233;-81
2023/07/26 03:41:49;;;;;;;6.93;6.27;;;;;;;12.36;100.00;97841.22;5072337;28;20215;-81
2023/07/26 03:44:15;;;;;;;6.40;5.80;;;;;;;12.27;100.00;97845.44;5072091;28;20205;-81
2023/07/26 03:46:42;;;;;;;9.00;6.83;;;;;;;12.22;100.00;97844.97;5072335;28;20269;-81
2023/07/26 03:49:08;;;;;;;7.60;6.23;;;;;;;12.26;100.00;97846.41;5071455;28;20228;-81
2023/07/26 03:51:35;;;;;;;7.10;6.40;;;;;;;12.30;100.00;97847.00;5072138;28;20208;-81
2023/07/26 03:54:01;;;;;;;7.50;5.80;;;;;;;12.34;100.00;97851.09;5072121;28;20669;-81
2023/07/26 03:56:29;;;;;;;8.90;6.70;;;;;;;12.35;100.00;97855.44;5072256;28;20212;-81
2023/07/26 03:58:55;;;;;;;11.83;7.13;;;;;;;12.37;100.00;97853.50;5071937;28;20596;-81
2023/07/26 04:01:22;;;;;;;7.70;5.90;;;;;;;12.37;100.00;97846.41;5071432;28;20302;-81
2023/07/26 04:03:49;;;;;;;7.40;6.60;;;;;;;12.38;100.00;97850.72;5071939;28;20218;-81
2023/07/26 04:06:15;;;;;;;10.03;7.03;;;;;;;12.40;100.00;97847.97;5072129;28;20256;-81
2023/07/26 04:08:41;;;;;;;8.87;6.50;;;;;;;12.44;100.00;97854.66;5071746;28;20675;-80
2023/07/26 04:11:08;;;;;;;8.93;6.60;;;;;;;12.50;100.00;97851.53;5071224;28;20213;-81
2023/07/26 04:13:36;;;;;;;7.67;6.87;;;;;;;12.51;100.00;97856.72;5071375;28;20304;-81
2023/07/26 04:16:12;;;;;;;7.20;5.87;;;;;;;12.57;100.00;97855.34;5071559;28;20234;-81
2023/07/26 04:18:38;;;;;;;9.87;7.13;;;;;;;12.61;100.00;97862.09;5071698;28;20227;-81
2023/07/26 04:21:05;;;;;;;7.57;6.43;;;;;;;12.63;100.00;97861.00;5071065;28;20208;-81
2023/07/26 04:23:31;;;;;;;8.00;6.27;;;;;;;12.69;100.00;97864.97;5071468;28;20289;-81
2023/07/26 04:25:58;;;;;;;8.90;6.77;;;;;;;12.74;100.00;97868.09;5071425;28;20236;-80
2023/07/26 04:28:24;;;;;;;8.17;6.70;;;;;;;12.78;100.00;97869.53;5071608;28;20238;-80
2023/07/26 04:30:52;;;;;;;8.03;7.00;;;;;;;12.75;100.00;97875.06;5070688;28;20204;-80
2023/07/26 04:33:19;;;;;;;8.27;7.00;;;;;;;12.78;100.00;97877.47;5071331;28;20211;-80
2023/07/26 04:35:45;;;;;;;7.80;6.53;;;;;;;12.78;100.00;97880.13;5071422;28;20238;-79
2023/07/26 04:38:12;;;;;;;7.37;6.77;;;;;;;12.81;100.00;97883.38;5071281;28;20227;-80
2023/07/26 04:40:39;;;;;;;11.37;7.10;;;;;;;12.80;100.00;97878.19;5070562;28;20322;-80
2023/07/26 04:43:05;;;;;;;7.00;6.30;;;;;;;12.78;100.00;97880.97;5071445;28;20208;-80
2023/07/26 04:45:32;;;;;;;10.20;6.87;;;;;;;12.82;100.00;97886.84;5071443;28;20210;-80
2023/07/26 04:48:00;;;;;;;7.67;6.47;;;;;;;12.94;100.00;97885.84;5071252;28;20326;-80
2023/07/26 04:50:26;;;;;;;8.87;6.70;;;;;;;13.02;100.00;97894.06;5070612;28;20208;-80
2023/07/26 04:52:53;;;;;;;7.90;6.53;;;;;;;13.04;100.00;97897.44;5071480;28;20562;-81
2023/07/26 04:55:19;;;;;;;9.17;6.17;;;;;;;13.04;100.00;97900.09;5071107;28;20239;-80
2023/07/26 04:57:46;;;;;;;8.23;6.27;;;;;;;13.13;100.00;97909.91;5071543;28;20244;-80
2023/07/26 05:00:13;;;;;;;7.07;6.10;;;;;;;13.21;100.00;97910.16;5070644;28;20220;-81
2023/07/26 05:02:40;;;;;;;7.20;6.30;;;;;;;13.13;100.00;97912.56;5071513;28;20205;-80
2023/07/26 05:05:08;;;;;;;8.03;5.93;;;;;;;13.18;100.00;97915.69;5071552;28;20207;-81
2023/07/26 05:10:03;;;;;;;6.80;6.10;;;;;;;13.16;100.00;97917.63;5047859;28;20220;-78
2023/07/26 05:12:30;;;;;;;7.97;6.13;;;;;;;13.24;100.00;97920.50;5051285;28;20213;-78
2023/07/26 05:14:56;;;;;;;7.97;6.47;;;;;;;13.29;100.00;97923.59;5051257;28;20232;-79
2023/07/26 05:17:23;;;;;;;9.53;7.67;;;;;;;13.39;100.00;97919.22;5051368;28;20216;-78
2023/07/26 05:19:49;;;;;;;8.87;7.13;;;;;;;13.53;100.00;97933.03;5050362;28;20318;-77
2023/07/26 05:22:17;;;;;;;7.73;6.93;;;;;;;13.54;100.00;97918.78;5051058;28;20579;-77
2023/07/26 05:24:44;;;;;;;8.70;7.47;;;;;;;13.58;100.00;97924.69;5051384;28;20212;-79
2023/07/26 05:27:10;;;;;;;8.50;7.20;;;;;;;13.61;100.00;97930.56;5054894;28;20208;-79
2023/07/26 05:29:36;;;;;;;7.60;6.90;;;;;;;13.70;100.00;97926.28;5054719;28;20229;-77
2023/07/26 05:32:03;;;;;;;9.20;6.47;;;;;;;13.74;100.00;97925.06;5055917;28;20214;-78
2023/07/26 05:34:30;;;;;;;7.57;6.87;;;;;;;13.78;100.00;97926.47;5059594;28;20208;-77
2023/07/26 05:36:56;;;;;;;7.77;6.97;;;;;;;13.77;100.00;97928.31;5062425;28;20234;-79
2023/07/26 05:39:24;;;;;;;8.40;7.03;;;;;;;13.81;100.00;97931.53;5063139;28;20255;-79
2023/07/26 05:41:50;;;;;;;7.93;6.57;;;;;;;13.89;100.00;97929.91;5063160;28;20214;-77
2023/07/26 05:44:17;;;;;;;7.80;7.00;;;;;;;13.89;100.00;97935.22;5064879;28;20684;-77
2023/07/26 05:46:43;;;;;;;7.70;6.87;;;;;;;13.93;100.00;97935.81;5055910;28;20212;-78
2023/07/26 05:49:10;;;;;;;7.53;6.20;;;;;;;13.92;100.00;97929.63;5054048;28;20229;-78
2023/07/26 05:51:36;;;;;;;7.10;6.17;;;;;;;13.97;100.00;97934.56;5055056;28;20235;-78
2023/07/26 05:54:03;;;;;;;6.50;5.90;;;;;;;14.02;100.00;97930.53;5055003;28;20210;-77
2023/07/26 05:56:31;;;;;;;6.63;6.03;;;;;;;14.10;100.00;97937.84;5054784;28;20231;-79
2023/07/26 05:58:58;;;;;;;8.70;5.93;;;;;;;14.13;100.00;97948.22;5054968;28;20231;-77
2023/07/26 06:01:24;;;;;;;7.23;6.43;;;;;;;14.22;100.00;97952.75;5054137;28;20212;-76
2023/07/26 06:03:51;;;;;;;6.10;5.40;;;;;;;14.24;100.00;97948.16;5054526;28;20219;-77
2023/07/26 06:06:17;;;;;;;6.77;5.60;;;;;;;14.32;100.00;97945.69;5054530;28;20273;-76
2023/07/26 06:08:44;;;;;;;7.27;5.20;;;;;;;14.42;100.00;97960.69;5054459;28;20238;-75
2023/07/26 06:11:10;;;;;;;5.70;5.20;;;;;;;14.52;100.00;97950.09;5053784;28;20212;-75
2023/07/26 06:13:39;;;;;;;8.70;5.63;;;;;;;14.58;100.00;97944.22;5054433;28;20218;-75
2023/07/26 06:16:06;;;;;;;6.53;5.40;;;;;;;14.64;100.00;97959.66;5054195;28;20233;-76
2023/07/26 06:18:32;;;;;;;6.00;5.37;;;;;;;14.79;100.00;97953.00;5054270;28;20229;-76
2023/07/26 06:20:59;;;;;;;6.93;5.00;;;;;;;14.89;100.00;97948.50;5053887;28;20222;-77
2023/07/26 06:23:25;;;;;;;6.23;4.47;;;;;;;15.07;100.00;97952.19;5054445;28;20210;-76
2023/07/26 06:25:52;;;;;;;6.07;5.17;;;;;;;15.18;100.00;97949.41;5054192;28;20210;-75
2023/07/26 06:28:18;;;;;;;7.27;4.50;;;;;;;15.40;100.00;97949.19;5054163;28;20703;-76
2023/07/26 06:30:46;;;;;;;6.37;4.27;;;;;;;15.53;100.00;97953.22;5053390;28;20219;-75
2023/07/26 06:33:13;;;;;;;4.93;4.33;;;;;;;15.64;100.00;97953.06;5054046;28;20697;-76
2023/07/26 06:35:40;;;;;;;5.40;4.30;;;;;;;15.73;100.00;97956.72;5054214;28;20238;-76
2023/07/26 06:38:08;;;;;;;5.77;3.50;;;;;;;15.72;100.00;97961.22;5053177;28;20235;-75
2023/07/26 06:40:34;;;;;;;6.77;4.00;;;;;;;15.64;100.00;97968.25;5053220;28;20435;-76
2023/07/26 06:43:01;;;;;;;4.23;3.93;;;;;;;15.64;100.00;97968.25;5052806;28;20211;-75
2023/07/26 06:45:27;;;;;;;4.53;3.40;;;;;;;15.68;100.00;97980.28;5053547;28;20214;-75
2023/07/26 06:47:55;;;;;;;5.00;4.00;;;;;;;15.73;100.00;97984.22;5053871;28;20231;-75
2023/07/26 06:50:22;;;;;;;4.23;3.83;;;;;;;15.73;100.00;97978.03;5053063;28;20211;-75
2023/07/26 06:52:49;;;;;;;4.63;3.83;;;;;;;15.75;100.00;97981.38;5053689;28;20215;-75
2023/07/26 06:55:15;;;;;;;4.83;4.27;;;;;;;15.82;100.00;97993.19;5053601;28;20210;-78
2023/07/26 06:57:42;;;;;;;6.20;4.03;;;;;;;15.88;100.00;97985.44;5053576;28;20212;-80
2023/07/26 07:00:12;;;;;;;4.20;3.77;;;;;;;15.89;100.00;97976.47;5052639;28;20211;-79
2023/07/26 07:02:39;;;;;;;4.77;4.27;;;;;;;15.85;100.00;97982.22;5053559;28;20226;-78
2023/07/26 07:05:07;;;;;;;4.47;4.03;;;;;;;15.80;100.00;97984.47;5053634;28;20233;-79
2023/07/26 07:07:33;;;;;;;4.37;3.63;;;;;;;15.75;100.00;97992.06;5053663;28;20215;-78
2023/07/26 07:10:00;;;;;;;4.10;3.30;;;;;;;15.63;100.00;97985.22;5052991;28;20238;-79
2023/07/26 07:12:26;;;;;;;5.77;3.97;;;;;;;15.32;100.00;97999.56;5053608;28;20218;-80
2023/07/26 07:14:53;;;;;;;5.03;4.53;;;;;;;15.04;100.00;98009.19;5053242;28;20214;-80
2023/07/26 07:17:20;;;;;;;5.60;5.00;;;;;;;14.97;100.00;98009.91;5050052;28;20452;-81
2023/07/26 07:19:46;;;;;;;5.63;4.50;;;;;;;14.78;100.00;98005.34;5050491;28;20231;-81
2023/07/26 07:22:14;;;;;;;4.87;4.37;;;;;;;14.71;100.00;98008.66;5052492;28;20233;-80
2023/07/26 07:24:41;;;;;;;6.03;4.97;;;;;;;14.62;100.00;98009.47;5052097;28;20212;-79
2023/07/26 07:27:07;;;;;;;4.83;4.40;;;;;;;14.50;100.00;98010.56;5051063;28;20302;-79
2023/07/26 07:29:34;;;;;;;5.20;4.70;;;;;;;14.40;100.00;98004.34;5051485;28;20235;-80
2023/07/26 07:32:00;;;;;;;5.20;4.63;;;;;;;14.27;100.00;98006.38;5052225;28;20210;-80
2023/07/26 07:34:27;;;;;;;6.57;5.20;;;;;;;14.12;100.00;98008.50;5051722;28;20221;-79
2023/07/26 07:36:53;;;;;;;5.70;5.20;;;;;;;14.01;100.00;98018.34;5051875;28;20576;-80
2023/07/26 07:39:21;;;;;;;7.33;5.60;;;;;;;14.01;100.00;98008.59;5051403;28;20230;-80
2023/07/26 07:41:48;;;;;;;6.83;5.63;;;;;;;14.00;100.00;98014.03;5050919;28;20217;-80
2023/07/26 07:44:14;;;;;;;6.00;5.23;;;;;;;13.97;100.00;98008.94;5051912;28;20677;-80
2023/07/26 07:46:44;;;;;;;8.57;6.53;;;;;;;13.97;100.00;98011.59;5051780;28;20546;-80
2023/07/26 07:49:10;;;;;;;6.73;6.00;;;;;;;14.00;100.00;98011.38;5049385;28;20241;-82
2023/07/26 07:51:38;;;;;;;6.60;6.00;;;;;;;14.00;100.00;98014.03;5051907;28;20346;-81
2023/07/26 07:54:04;;;;;;;7.60;5.67;;;;;;;14.04;100.00;98018.09;5051988;28;20211;-82
2023/07/26 07:56:32;;;;;;;6.43;5.80;;;;;;;14.10;100.00;98013.09;5050704;28;20262;-82
2023/07/26 07:58:59;;;;;;;7.57;6.73;;;;;;;14.16;100.00;98017.91;5051825;28;20577;-76
2023/07/26 08:01:25;;;;;;;6.80;6.10;;;;;;;14.20;100.00;98010.53;5050874;28;20217;-76
2023/07/26 08:03:52;;;;;;;6.20;5.60;;;;;;;14.21;100.00;98006.91;5050809;28;20743;-76
2023/07/26 08:06:19;;;;;;;6.27;5.67;;;;;;;14.24;100.00;98010.13;5051193;28;20221;-76
2023/07/26 08:08:45;;;;;;;5.67;5.17;;;;;;;14.27;100.00;98014.34;5051057;28;20299;-76
2023/07/26 08:11:12;;;;;;;7.43;5.23;;;;;;;14.29;100.00;98007.09;5049615;28;20680;-74
2023/07/26 08:13:40;;;;;;;5.50;5.00;;;;;;;14.34;100.00;98010.19;5051421;28;20214;-77
2023/07/26 08:16:06;;;;;;;6.23;5.60;;;;;;;14.44;100.00;98008.44;5051263;28;20233;-78
2023/07/26 08:18:32;;;;;;;6.57;5.70;;;;;;;14.51;100.00;98014.88;5049632;28;20231;-78
2023/07/26 08:20:59;;;;;;;6.10;5.50;;;;;;;14.51;100.00;98014.88;5051350;28;20216;-78
2023/07/26 08:23:26;;;;;;;7.77;5.30;;;;;;;14.56;100.00;98010.88;5051453;28;20786;-75
2023/07/26 08:25:53;;;;;;;6.73;6.13;;;;;;;14.55;100.00;98014.47;5051276;28;20206;-75
2023/07/26 08:28:19;;;;;;;5.60;5.03;;;;;;;14.60;100.00;98020.25;5051466;28;20235;-75
2023/07/26 08:30:47;;;;;;;5.60;5.10;;;;;;;14.64;100.00;98024.34;5051345;28;20580;-76
2023/07/26 08:33:14;;;;;;;5.93;5.13;;;;;;;14.66;100.00;98017.06;5051800;28;20211;-75
2023/07/26 08:35:40;;;;;;;5.57;5.10;;;;;;;14.66;100.00;98024.22;5051728;28;20217;-75
2023/07/26 08:38:07;;;;;;;6.60;5.83;;;;;;;14.66;100.00;98021.56;5051627;28;20227;-76
2023/07/26 08:40:34;;;;;;;6.93;5.27;;;;;;;14.71;100.00;98017.50;5050980;28;20681;-76
2023/07/26 08:43:03;;;;;;;5.50;5.00;;;;;;;14.79;100.00;98017.66;5051401;28;20221;-78
2023/07/26 08:45:31;;;;;;;8.03;5.17;;;;;;;14.92;100.00;98012.94;5051713;28;20215;-76
2023/07/26 08:48:00;;;;;;;6.00;5.43;;;;;;;15.06;100.00;98015.25;5051115;28;20868;-75
2023/07/26 08:50:27;;;;;;;5.20;4.70;;;;;;;15.23;100.00;98009.25;5050599;28;20239;-75
2023/07/26 08:52:53;;;;;;;5.77;5.20;;;;;;;15.40;100.00;98011.25;5051439;28;20211;-75
2023/07/26 08:55:20;;;;;;;6.03;4.90;;;;;;;15.52;100.00;98011.97;5051344;28;20225;-75
2023/07/26 08:57:46;;;;;;;5.60;4.80;;;;;;;15.62;100.00;98018.13;5051013;28;20252;-75
2023/07/26 09:00:14;;;;;;;5.00;4.50;;;;;;;15.84;100.00;98012.53;5050466;28;20222;-77
2023/07/26 09:02:45;;;;;;;4.23;3.83;;;;;;;16.09;100.00;98013.63;5051254;28;20215;-76
2023/07/26 09:05:13;;;;;;;4.77;3.20;;;;;;;16.40;100.00;98012.47;5051402;28;20219;-76
2023/07/26 09:07:39;;;;;;;3.30;2.70;;;;;;;16.70;100.00;98006.06;5051209;28;20208;-76
2023/07/26 09:10:06;;;;;;;2.83;2.60;;;;;;;16.94;100.00;97991.16;5050623;28;20231;-75
2023/07/26 09:12:34;;;;;;;2.47;2.27;;;;;;;16.98;100.00;97989.91;5051134;28;20295;-75
2023/07/26 09:15:05;;;;;;;3.37;2.17;;;;;;;16.90;99.49;97988.94;5050959;28;20212;-75
2023/07/26 09:17:39;;;;;;;2.63;2.30;;;;;;;16.76;99.65;97982.28;5050954;28;20282;-75
2023/07/26 09:20:18;;;;;;;2.27;1.80;;;;;;;16.55;97.62;97989.69;5050677;28;20208;-75
2023/07/26 09:22:46;;;;;;;2.73;2.10;;;;;;;16.33;98.68;97990.00;5050727;28;20677;-74
2023/07/26 09:25:12;;;;;;;2.30;1.67;;;;;;;16.22;98.72;97998.16;5051200;28;20218;-75
2023/07/26 09:27:52;;;;;;;1.90;1.80;;;;;;;16.00;100.00;98005.63;5051033;28;20200;-76
2023/07/26 09:30:21;;;;;;;1.80;1.70;;;;;;;15.94;98.28;97997.38;5050267;28;20215;-75
2023/07/26 09:32:49;;;;;;;4.07;1.70;;;;;;;15.90;100.00;98001.31;5050867;28;20246;-74
2023/07/26 09:35:15;;;;;;;2.13;1.73;;;;;;;15.78;100.00;98018.44;5051100;28;20208;-74
2023/07/26 09:37:42;;;;;;;1.90;1.70;;;;;;;15.65;100.00;98004.56;5050964;28;20317;-75
2023/07/26 09:40:11;;;;;;;2.60;1.80;;;;;;;15.58;100.00;98008.75;5050176;28;20218;-74
2023/07/26 09:42:44;;;;;;;1.70;1.60;;;;;;;15.48;100.00;98008.75;5050450;28;20211;-76
2023/07/26 09:45:15;;;;;;;1.60;1.50;;;;;;;15.42;100.00;97996.00;5050934;28;20361;-75
2023/07/26 09:47:43;;;;;;;1.50;1.40;;;;;;;15.38;100.00;97993.72;5048737;28;20634;-75
2023/07/26 09:50:24;;;;;;;1.30;1.20;;;;;;;15.31;100.00;98013.88;5048733;28;20202;-76
2023/07/26 09:52:53;;;;;;;1.97;1.77;;;;;;;15.26;100.00;98024.09;5049964;28;20215;-76
2023/07/26 09:55:23;;;;;;;2.20;2.00;;;;;;;15.37;100.00;98024.00;5049742;28;20207;-77
2023/07/26 09:57:51;;;;;;;3.53;2.90;;;;;;;15.32;100.00;98026.19;5050675;28;20236;-77
2023/07/26 10:00:19;;;;;;;3.37;2.43;;;;;;;15.26;100.00;98032.06;5050176;28;20211;-78
2023/07/26 10:02:46;;;;;;;2.97;2.67;;;;;;;15.38;100.00;98028.34;5050779;28;20218;-76
2023/07/26 10:05:16;;;;;;;3.70;2.80;;;;;;;15.40;100.00;98027.22;5050626;28;20223;-77
2023/07/26 10:07:44;;;;;;;5.13;3.07;;;;;;;15.45;100.00;98037.50;5050348;28;20218;-77
2023/07/26 10:10:12;;;;;;;3.90;3.50;;;;;;;15.49;100.00;98028.22;5050011;28;20681;-77
2023/07/26 10:12:42;;;;;;;4.43;3.83;;;;;;;15.55;100.00;98025.00;5051819;28;20211;-75
2023/07/26 10:15:10;;;;;;;3.37;2.50;;;;;;;15.65;100.00;98024.03;5054601;28;20215;-76
2023/07/26 10:17:39;;;;;;;4.73;3.00;;;;;;;15.81;100.00;98021.66;5054239;28;20235;-77
2023/07/26 10:20:09;;;;;;;2.60;2.40;;;;;;;16.12;100.00;98022.34;5053552;28;20669;-77
2023/07/26 10:22:36;;;;;;;3.70;3.13;;;;;;;16.42;100.00;98021.19;5054285;28;20219;-75
2023/07/26 10:25:03;;;;;;;4.17;1.87;;;;;;;16.66;100.00;98016.19;5054400;28;20584;-76
2023/07/26 10:27:29;;;;;;;1.97;1.30;;;;;;;16.81;100.00;98017.38;5054138;28;20204;-76
2023/07/26 10:29:57;;;;;;;2.10;1.60;;;;;;;16.72;100.00;98020.94;5053530;28;20215;-76
2023/07/26 10:32:24;;;;;;;4.03;1.70;;;;;;;16.48;100.00;98019.75;5054004;28;20212;-75
2023/07/26 10:34:58;;;;;;;2.10;1.90;;;;;;;16.21;100.00;98019.66;5054046;28;20215;-76
2023/07/26 10:37:30;;;;;;;2.30;1.70;;;;;;;16.12;100.00;98022.34;5054185;28;20235;-76
2023/07/26 10:39:57;;;;;;;3.83;2.00;;;;;;;16.04;100.00;98015.88;5053458;28;20222;-77
2023/07/26 10:42:25;;;;;;;2.67;1.73;;;;;;;16.29;100.00;98009.94;5054055;28;20207;-76
2023/07/26 10:44:53;;;;;;;2.03;1.93;;;;;;;16.53;100.00;98012.97;5053786;28;20227;-76
2023/07/26 10:47:21;;;;;;;3.07;2.10;;;;;;;16.89;100.00;98012.13;5053647;28;20208;-76
2023/07/26 10:49:48;;;;;;;2.30;1.90;;;;;;;17.22;100.00;98006.19;5053286;28;20235;-76
2023/07/26 10:52:15;;;;;;;2.13;1.93;;;;;;;17.51;100.00;98006.88;5054017;28;20211;-76
2023/07/26 10:54:44;;;;;;;2.17;1.97;;;;;;;17.61;100.00;97991.59;5053721;28;20212;-75
2023/07/26 10:57:22;;;;;;;2.33;2.13;;;;;;;17.60;100.00;97995.25;5053668;28;20234;-75
2023/07/26 10:59:50;;;;;;;3.20;2.20;;;;;;;17.41;100.00;97989.22;5051878;28;20234;-78
2023/07/26 11:02:36;;;;;;;3.33;2.20;;;;;;;17.15;99.45;97988.25;5053812;28;20208;-81
2023/07/26 11:05:04;;;;;;;2.77;2.33;;;;;;;16.96;100.00;97999.84;5051997;28;20265;-78
2023/07/26 11:10:30;;;;;;;2.10;1.93;;;;;;;17.04;97.38;97991.13;5027885;28;20217;-84
2023/07/26 11:13:09;;;;;;;2.50;2.30;;;;;;;17.28;100.00;97994.06;5031298;28;20672;-84
2023/07/26 11:15:37;;;;;;;2.60;2.40;;;;;;;17.57;100.00;97992.91;5032199;28;20212;-84
2023/07/26 11:18:05;;;;;;;4.30;2.70;;;;;;;17.88;98.73;97994.19;5031141;28;20232;-84
2023/07/26 11:20:32;;;;;;;3.20;2.17;;;;;;;18.12;96.59;97980.16;5029342;28;20605;-84
2023/07/26 11:22:59;;;;;;;3.17;2.77;;;;;;;18.18;88.00;97956.31;5030019;28;20220;-81
2023/07/26 11:25:25;;;;;;;4.03;2.30;;;;;;;18.20;87.53;97965.00;5029849;28;20578;-81
2023/07/26 11:27:52;;;;;;;2.80;2.17;;;;;;;18.33;87.87;97962.78;5032906;28;20224;-84